Terminal Aerodrome Forecast
Issued by NWS Tampa Bay Area, FL

Home | Current Version | Previous Version | Text Only | Print | Product List | Glossary On
Versions: 1 2 3 4 5 6 7 8 9 10 11 12 13 14
000
FTUS42 KTBW 011124
TAFFMY
TAF
KFMY 011124Z 0112/0212 16004KT P6SM SCT025 OVC100
     FM011400 19008KT P6SM SCT025 OVC100
     FM011700 21010G20KT P6SM VCTS SCT035CB BKN050 OVC100
     FM020100 18004KT P6SM VCTS FEW010 SCT025CB BKN040
     FM020600 17004KT P6SM VCTS SCT020CB SCT040 OVC100=

USA.gov is the U.S. government's official web portal to all federal, state and local government web resources and services.